Time;durP1;ratioP1;P1;durP2;ratioP2;P2;SDS_P1;SDS_P2;PMS_P1;PMS_P2;Temp;Humidity;BMP_temperature;BMP_pressure;BME280_temperature;BME280_humidity;BME280_pressure;Samples;Min_cycle;Max_cycle;Signal;HPM_P1;HPM_P2
2023/05/24 00:02:27;;;;;;;29.55;5.45;;;;;;;;;;6323722;22;20443;-92
2023/05/24 00:04:54;;;;;;;26.15;5.78;;;;;;;;;;6319936;22;20017;-94
2023/05/24 00:07:23;;;;;;;30.10;5.38;;;;;;;;;;6319885;22;20375;-93
2023/05/24 00:09:50;;;;;;;30.33;5.22;;;;;;;;;;6320580;22;20014;-92
2023/05/24 00:12:16;;;;;;;27.98;5.10;;;;;;;;;;6319877;22;20041;-93
2023/05/24 00:14:45;;;;;;;22.92;5.25;;;;;;;;;;6320621;22;20007;-91
2023/05/24 00:17:12;;;;;;;23.02;4.60;;;;;;;;;;6345405;22;20077;-93
2023/05/24 00:19:39;;;;;;;27.08;4.53;;;;;;;;;;6316880;22;20610;-93
2023/05/24 00:22:05;;;;;;;23.25;5.32;;;;;;;;;;6311029;22;20013;-92
2023/05/24 00:24:34;;;;;;;19.73;6.28;;;;;;;;;;6317944;22;20440;-94
2023/05/24 00:27:00;;;;;;;33.78;5.55;;;;;;;;;;6344659;22;20010;-91
2023/05/24 00:29:33;;;;;;;24.10;4.18;;;;;;;;;;6318903;22;20478;-93
2023/05/24 00:31:59;;;;;;;23.00;5.20;;;;;;;;;;6318978;22;20010;-93
2023/05/24 00:34:28;;;;;;;27.92;5.65;;;;;;;;;;6318469;22;20006;-93
2023/05/24 00:36:55;;;;;;;37.22;6.93;;;;;;;;;;6344558;22;20029;-93
2023/05/24 00:39:31;;;;;;;25.83;4.18;;;;;;;;;;6318913;22;20089;-93
2023/05/24 00:41:57;;;;;;;40.67;5.13;;;;;;;;;;6320334;22;20002;-93
2023/05/24 00:44:37;;;;;;;18.35;4.57;;;;;;;;;;6321087;22;20451;-93
2023/05/24 00:47:04;;;;;;;25.33;4.68;;;;;;;;;;6322764;22;20010;-93
2023/05/24 00:49:30;;;;;;;29.88;3.88;;;;;;;;;;6320127;22;20328;-93
2023/05/24 00:51:58;;;;;;;26.20;4.80;;;;;;;;;;6346130;22;20041;-93
2023/05/24 00:54:25;;;;;;;25.30;6.57;;;;;;;;;;6320690;22;20013;-93
2023/05/24 00:56:52;;;;;;;41.35;6.47;;;;;;;;;;6316894;22;20403;-93
2023/05/24 00:59:19;;;;;;;29.98;4.75;;;;;;;;;;6318991;22;20007;-92
2023/05/24 01:01:49;;;;;;;24.38;3.78;;;;;;;;;;6345895;22;20343;-93
2023/05/24 01:04:16;;;;;;;29.23;5.13;;;;;;;;;;6322004;22;20317;-93
2023/05/24 01:07:04;;;;;;;25.77;4.50;;;;;;;;;;6319618;22;20010;-94
2023/05/24 01:09:31;;;;;;;28.27;4.93;;;;;;;;;;6326217;22;20379;-93
2023/05/24 01:12:00;;;;;;;146.75;11.90;;;;;;;;;;6346206;22;20009;-93
2023/05/24 01:14:45;;;;;;;28.80;4.93;;;;;;;;;;6345457;22;20496;-94
2023/05/24 01:17:14;;;;;;;15.27;5.03;;;;;;;;;;6345851;22;20026;-94
2023/05/24 01:19:44;;;;;;;27.13;4.65;;;;;;;;;;6346594;22;20002;-94
2023/05/24 01:22:29;;;;;;;30.65;4.10;;;;;;;;;;6346362;22;20020;-92
2023/05/24 01:25:00;;;;;;;31.50;4.82;;;;;;;;;;6345459;22;20021;-93
2023/05/24 01:27:30;;;;;;;26.55;4.50;;;;;;;;;;6372416;22;20003;-93
2023/05/24 01:29:56;;;;;;;19.75;4.43;;;;;;;;;;6344828;22;20017;-93
2023/05/24 01:32:35;;;;;;;27.98;5.22;;;;;;;;;;6318732;22;20151;-92
2023/05/24 01:35:01;;;;;;;29.58;5.38;;;;;;;;;;6321305;22;20089;-95
2023/05/24 01:37:30;;;;;;;27.40;4.97;;;;;;;;;;6345180;22;20006;-93
2023/05/24 01:39:57;;;;;;;22.75;5.20;;;;;;;;;;6319815;22;20056;-93
2023/05/24 01:42:37;;;;;;;29.42;4.63;;;;;;;;;;6345009;22;20424;-94
2023/05/24 01:45:09;;;;;;;22.65;5.22;;;;;;;;;;6345199;22;20002;-93
2023/05/24 01:47:50;;;;;;;28.05;4.63;;;;;;;;;;6345061;22;20010;-94
2023/05/24 01:50:19;;;;;;;26.63;4.55;;;;;;;;;;6344915;22;20010;-94
2023/05/24 01:52:46;;;;;;;25.08;4.45;;;;;;;;;;6346209;22;20040;-94
2023/05/24 01:55:17;;;;;;;28.67;5.10;;;;;;;;;;6344902;22;20022;-93
2023/05/24 01:57:45;;;;;;;24.98;4.57;;;;;;;;;;6344922;22;20003;-93
2023/05/24 02:00:14;;;;;;;23.05;4.50;;;;;;;;;;6346024;22;20007;-93
2023/05/24 02:02:40;;;;;;;26.52;4.93;;;;;;;;;;6348825;22;20006;-93
2023/05/24 02:05:07;;;;;;;27.83;5.38;;;;;;;;;;6351268;22;20010;-93
2023/05/24 02:07:41;;;;;;;21.38;5.32;;;;;;;;;;6325910;22;20010;-93
2023/05/24 02:10:08;;;;;;;23.73;5.28;;;;;;;;;;6338652;22;20040;-93
2023/05/24 02:12:34;;;;;;;23.88;4.57;;;;;;;;;;6338080;22;20131;-94
2023/05/24 02:15:13;;;;;;;29.33;4.63;;;;;;;;;;6363864;22;20002;-91
2023/05/24 02:18:03;;;;;;;22.02;3.90;;;;;;;;;;6336788;22;20010;-92
2023/05/24 02:20:35;;;;;;;24.58;4.18;;;;;;;;;;6348190;22;20019;-92
2023/05/24 02:23:05;;;;;;;19.75;4.45;;;;;;;;;;6363459;22;20006;-93
2023/05/24 02:25:41;;;;;;;21.88;5.35;;;;;;;;;;6359331;22;20349;-93
2023/05/24 02:28:07;;;;;;;27.30;4.13;;;;;;;;;;6327166;22;20014;-93
2023/05/24 02:30:43;;;;;;;27.48;4.00;;;;;;;;;;6325110;22;20486;-93
2023/05/24 02:33:10;;;;;;;22.48;4.43;;;;;;;;;;6347850;22;20454;-92
2023/05/24 02:35:37;;;;;;;16.17;3.67;;;;;;;;;;6321567;22;20382;-93
2023/05/24 02:38:05;;;;;;;17.60;4.05;;;;;;;;;;6345560;22;20032;-92
2023/05/24 02:40:31;;;;;;;17.25;4.13;;;;;;;;;;6321550;22;20040;-93
2023/05/24 02:42:58;;;;;;;28.80;4.53;;;;;;;;;;6321177;22;20033;-93
2023/05/24 02:45:28;;;;;;;27.98;4.45;;;;;;;;;;6321492;22;20002;-93
2023/05/24 02:47:55;;;;;;;18.92;3.85;;;;;;;;;;6320685;22;20014;-92
2023/05/24 02:50:21;;;;;;;22.42;4.18;;;;;;;;;;6345910;22;20043;-92
2023/05/24 02:52:47;;;;;;;21.10;3.65;;;;;;;;;;6321480;22;20010;-92
2023/05/24 02:55:13;;;;;;;32.33;4.25;;;;;;;;;;6347105;22;20002;-93
2023/05/24 02:57:43;;;;;;;21.15;3.85;;;;;;;;;;6320339;22;20477;-92
2023/05/24 03:00:10;;;;;;;24.90;4.85;;;;;;;;;;6319407;22;20017;-93
2023/05/24 03:02:46;;;;;;;19.88;4.65;;;;;;;;;;6324101;22;20021;-93
2023/05/24 03:05:12;;;;;;;;;;;;;;;;;;6323889;22;20006;-93
2023/05/24 03:07:38;;;;;;;27.33;4.30;;;;;;;;;;6348244;22;20231;-94
2023/05/24 03:10:07;;;;;;;22.35;3.58;;;;;;;;;;6322630;22;20069;-93
2023/05/24 03:12:37;;;;;;;20.95;3.65;;;;;;;;;;6322419;22;20010;-93
2023/05/24 03:15:03;;;;;;;19.35;3.67;;;;;;;;;;6323210;22;20014;-93
2023/05/24 03:17:29;;;;;;;27.23;5.38;;;;;;;;;;6322037;22;20214;-93
2023/05/24 03:19:56;;;;;;;23.42;3.80;;;;;;;;;;6324109;22;20450;-92
2023/05/24 03:22:28;;;;;;;28.92;4.50;;;;;;;;;;6349898;22;20037;-92
2023/05/24 03:24:55;;;;;;;16.92;4.10;;;;;;;;;;6349580;22;20013;-93
2023/05/24 03:27:24;;;;;;;25.00;4.18;;;;;;;;;;6324493;22;20006;-92
2023/05/24 03:29:50;;;;;;;29.40;4.88;;;;;;;;;;6350235;22;20432;-93
2023/05/24 03:32:16;;;;;;;17.10;3.75;;;;;;;;;;6350598;22;20056;-92
2023/05/24 03:34:42;;;;;;;20.75;5.38;;;;;;;;;;6324422;22;20224;-92
2023/05/24 03:37:09;;;;;;;20.33;4.65;;;;;;;;;;6324638;22;20090;-92
2023/05/24 03:39:36;;;;;;;24.77;4.25;;;;;;;;;;6326636;22;20067;-92
2023/05/24 03:42:02;;;;;;;22.45;3.55;;;;;;;;;;6353881;22;20081;-92
2023/05/24 03:44:28;;;;;;;20.10;4.20;;;;;;;;;;6356536;22;19991;-93
2023/05/24 03:46:54;;;;;;;24.42;5.07;;;;;;;;;;6334593;22;20017;-95
2023/05/24 03:49:24;;;;;;;28.67;4.63;;;;;;;;;;6359078;22;20083;-92
2023/05/24 03:51:53;;;;;;;24.85;4.95;;;;;;;;;;6329251;22;20010;-94
2023/05/24 03:54:23;;;;;;;34.28;5.13;;;;;;;;;;6355861;22;20036;-91
2023/05/24 03:56:53;;;;;;;21.60;4.10;;;;;;;;;;6353173;22;20010;-92
2023/05/24 03:59:30;;;;;;;18.20;4.20;;;;;;;;;;6348382;22;20037;-92
2023/05/24 04:01:56;;;;;;;28.75;4.45;;;;;;;;;;6328316;22;20578;-92
2023/05/24 04:04:26;;;;;;;20.88;4.50;;;;;;;;;;6352046;22;19998;-93
2023/05/24 04:06:55;;;;;;;30.10;4.68;;;;;;;;;;6324603;22;20010;-93
2023/05/24 04:09:25;;;;;;;19.65;4.55;;;;;;;;;;6323972;22;20006;-93
2023/05/24 04:11:51;;;;;;;28.23;4.10;;;;;;;;;;6348822;22;20006;-92
2023/05/24 04:14:18;;;;;;;27.38;4.95;;;;;;;;;;6349329;22;20021;-92
2023/05/24 04:19:38;;;;;;;30.05;4.28;;;;;;;;;;6325763;22;20030;-92
2023/05/24 04:22:05;;;;;;;20.67;3.38;;;;;;;;;;6322708;22;20401;-93
2023/05/24 04:24:35;;;;;;;22.55;4.95;;;;;;;;;;6323041;22;20006;-92
2023/05/24 04:27:01;;;;;;;20.13;4.10;;;;;;;;;;6319411;22;20355;-93
2023/05/24 04:29:31;;;;;;;17.55;3.75;;;;;;;;;;6347196;22;20017;-94
2023/05/24 04:31:59;;;;;;;24.83;5.70;;;;;;;;;;6346167;22;20014;-93
2023/05/24 04:34:35;;;;;;;28.15;4.63;;;;;;;;;;6345329;22;20006;-94
2023/05/24 04:37:01;;;;;;;;;;;;;;;;;;6345336;22;19998;-93
2023/05/24 04:39:29;;;;;;;18.00;3.97;;;;;;;;;;6344762;22;19898;-93
2023/05/24 04:41:56;;;;;;;16.98;4.18;;;;;;;;;;6344998;22;20396;-93
2023/05/24 04:44:29;;;;;;;15.57;3.90;;;;;;;;;;6319383;22;20017;-94
2023/05/24 04:46:59;;;;;;;20.48;4.97;;;;;;;;;;6319568;22;20011;-95
2023/05/24 04:49:28;;;;;;;27.63;4.97;;;;;;;;;;6321432;22;20222;-93
2023/05/24 04:51:56;;;;;;;16.15;3.90;;;;;;;;;;6343904;22;20011;-94
2023/05/24 04:54:23;;;;;;;28.90;7.03;;;;;;;;;;6346135;22;20010;-93
2023/05/24 04:56:49;;;;;;;16.45;3.83;;;;;;;;;;6319018;22;20441;-94
2023/05/24 04:59:15;;;;;;;27.90;4.40;;;;;;;;;;6345643;22;20026;-94
2023/05/24 05:01:41;;;;;;;26.45;4.30;;;;;;;;;;6319552;22;20006;-93
2023/05/24 05:04:08;;;;;;;24.40;4.32;;;;;;;;;;6346778;22;19998;-93
2023/05/24 05:06:37;;;;;;;19.23;4.32;;;;;;;;;;6345481;22;20006;-93
2023/05/24 05:09:12;;;;;;;19.40;4.07;;;;;;;;;;6346426;22;20057;-93
2023/05/24 05:11:42;;;;;;;33.33;4.93;;;;;;;;;;6321442;22;20006;-93
2023/05/24 05:14:11;;;;;;;27.67;5.13;;;;;;;;;;6345700;22;20002;-94
2023/05/24 05:16:37;;;;;;;22.90;4.75;;;;;;;;;;6346293;22;20007;-94
2023/05/24 05:19:04;;;;;;;20.70;4.93;;;;;;;;;;6347388;22;19998;-91
2023/05/24 05:21:34;;;;;;;25.67;4.38;;;;;;;;;;6346218;22;20006;-93
2023/05/24 05:24:01;;;;;;;23.52;4.32;;;;;;;;;;6344614;22;20003;-94
2023/05/24 05:26:30;;;;;;;24.40;4.30;;;;;;;;;;6344729;22;20017;-93
2023/05/24 05:28:57;;;;;;;21.48;4.28;;;;;;;;;;6346194;22;20002;-94
2023/05/24 05:31:30;;;;;;;15.77;4.10;;;;;;;;;;6344800;22;20085;-93
2023/05/24 05:33:56;;;;;;;23.52;4.57;;;;;;;;;;6344064;22;20006;-93
2023/05/24 05:36:30;;;;;;;18.90;4.47;;;;;;;;;;6345049;22;20021;-94
2023/05/24 05:38:56;;;;;;;23.05;4.20;;;;;;;;;;6344902;22;20007;-93
2023/05/24 05:41:22;;;;;;;16.20;4.03;;;;;;;;;;6318993;22;20557;-94
2023/05/24 05:43:48;;;;;;;19.63;4.15;;;;;;;;;;6319293;22;20428;-93
2023/05/24 05:46:20;;;;;;;24.27;4.95;;;;;;;;;;6345126;22;20013;-93
2023/05/24 05:48:46;;;;;;;28.13;4.20;;;;;;;;;;6345561;22;20030;-93
2023/05/24 05:51:12;;;;;;;16.38;3.55;;;;;;;;;;6343690;22;20007;-93
2023/05/24 05:53:39;;;;;;;29.08;4.80;;;;;;;;;;6344597;22;20033;-94
2023/05/24 05:56:05;;;;;;;27.17;4.47;;;;;;;;;;6345589;22;20427;-92
2023/05/24 05:58:31;;;;;;;19.67;4.15;;;;;;;;;;6318803;22;20282;-92
2023/05/24 06:00:58;;;;;;;23.25;4.20;;;;;;;;;;6345696;22;20006;-93
2023/05/24 06:03:30;;;;;;;26.35;4.75;;;;;;;;;;6321610;22;20362;-93
2023/05/24 06:05:57;;;;;;;15.23;4.00;;;;;;;;;;6321301;22;20017;-93
2023/05/24 06:08:26;;;;;;;22.88;4.03;;;;;;;;;;6345758;22;20036;-93
2023/05/24 06:10:52;;;;;;;22.67;4.00;;;;;;;;;;6345236;22;20088;-92
2023/05/24 06:13:18;;;;;;;9.38;3.22;;;;;;;;;;6345936;22;20014;-92
2023/05/24 06:15:47;;;;;;;25.50;5.78;;;;;;;;;;6344706;22;20048;-92
2023/05/24 06:18:14;;;;;;;24.77;4.18;;;;;;;;;;6319029;22;20085;-92
2023/05/24 06:20:40;;;;;;;13.25;3.05;;;;;;;;;;6343569;22;20014;-93
2023/05/24 06:23:09;;;;;;;18.75;5.03;;;;;;;;;;6318763;22;20015;-93
2023/05/24 06:25:49;;;;;;;15.57;3.25;;;;;;;;;;6319492;22;20010;-93
2023/05/24 06:28:16;;;;;;;14.43;3.08;;;;;;;;;;6320431;22;20010;-92
2023/05/24 06:30:47;;;;;;;17.83;3.85;;;;;;;;;;6320267;22;20010;-93
2023/05/24 06:33:13;;;;;;;7.35;2.75;;;;;;;;;;6347436;22;20028;-93
2023/05/24 06:35:42;;;;;;;10.70;3.13;;;;;;;;;;6323849;22;20006;-93
2023/05/24 06:38:43;;;;;;;14.55;2.85;;;;;;;;;;6359596;22;19994;-93
2023/05/24 06:41:10;;;;;;;20.83;4.10;;;;;;;;;;6328356;22;20073;-94
2023/05/24 06:43:36;;;;;;;17.05;3.17;;;;;;;;;;6365551;22;19997;-92
2023/05/24 06:46:02;;;;;;;12.27;3.17;;;;;;;;;;6339524;22;20040;-93
2023/05/24 06:48:28;;;;;;;13.75;3.33;;;;;;;;;;6365270;22;20062;-93
2023/05/24 06:50:57;;;;;;;14.60;3.20;;;;;;;;;;6338468;22;20014;-93
2023/05/24 06:53:31;;;;;;;22.45;3.08;;;;;;;;;;6339838;22;20003;-93
2023/05/24 06:55:58;;;;;;;9.77;2.60;;;;;;;;;;6340269;22;20041;-92
2023/05/24 06:58:24;;;;;;;17.67;3.08;;;;;;;;;;6331385;22;20070;-93
2023/05/24 07:00:51;;;;;;;12.55;2.85;;;;;;;;;;6330806;22;19999;-92
2023/05/24 07:03:25;;;;;;;16.02;3.08;;;;;;;;;;6354805;22;20018;-93
2023/05/24 07:05:53;;;;;;;12.85;3.38;;;;;;;;;;6351043;22;20018;-94
2023/05/24 07:08:20;;;;;;;12.68;3.38;;;;;;;;;;6325031;22;20014;-94
2023/05/24 07:10:47;;;;;;;7.22;2.33;;;;;;;;;;6325608;22;20029;-94
2023/05/24 07:13:14;;;;;;;16.70;3.40;;;;;;;;;;6323340;22;20012;-94
2023/05/24 07:15:41;;;;;;;13.02;3.35;;;;;;;;;;6349403;22;20046;-94
2023/05/24 07:18:07;;;;;;;16.75;3.10;;;;;;;;;;6348698;22;20010;-94
2023/05/24 07:20:33;;;;;;;12.85;2.92;;;;;;;;;;6324356;22;20002;-94
2023/05/24 07:23:03;;;;;;;14.88;2.78;;;;;;;;;;6324255;22;20059;-94
2023/05/24 07:25:30;;;;;;;20.15;3.83;;;;;;;;;;6323059;22;20007;-92
2023/05/24 07:27:56;;;;;;;11.60;3.30;;;;;;;;;;6348387;22;20006;-94
2023/05/24 07:30:22;;;;;;;15.70;3.20;;;;;;;;;;6322852;22;20010;-95
2023/05/24 07:32:49;;;;;;;9.73;3.30;;;;;;;;;;6324922;22;20018;-94
2023/05/24 07:35:15;;;;;;;12.13;3.05;;;;;;;;;;6325688;22;20033;-94
2023/05/24 07:37:41;;;;;;;18.70;3.50;;;;;;;;;;6350645;22;20007;-93
2023/05/24 07:40:12;;;;;;;12.95;3.17;;;;;;;;;;6353545;22;20062;-94
2023/05/24 07:42:38;;;;;;;21.73;3.35;;;;;;;;;;6352950;22;20026;-95
2023/05/24 07:45:10;;;;;;;10.85;3.22;;;;;;;;;;6354809;22;19994;-96
2023/05/24 07:47:37;;;;;;;14.73;4.00;;;;;;;;;;6348398;22;20030;-94
2023/05/24 07:50:03;;;;;;;16.30;3.53;;;;;;;;;;6353201;22;20026;-95
2023/05/24 07:52:30;;;;;;;12.98;2.90;;;;;;;;;;6326832;22;20429;-93
2023/05/24 07:54:59;;;;;;;13.85;2.90;;;;;;;;;;6351919;22;20002;-93
2023/05/24 07:57:26;;;;;;;18.27;3.22;;;;;;;;;;6350667;22;20025;-93
2023/05/24 07:59:52;;;;;;;14.23;3.55;;;;;;;;;;6349097;22;19998;-94
2023/05/24 08:02:26;;;;;;;8.82;3.63;;;;;;;;;;6326275;22;20028;-93
2023/05/24 08:04:59;;;;;;;13.45;2.58;;;;;;;;;;6289297;22;20033;-93
2023/05/24 08:07:28;;;;;;;8.15;2.55;;;;;;;;;;6315950;22;20011;-94
2023/05/24 08:09:54;;;;;;;10.68;2.97;;;;;;;;;;6291448;22;20050;-93
2023/05/24 08:12:21;;;;;;;11.60;3.00;;;;;;;;;;6317050;22;20007;-93
2023/05/24 08:14:52;;;;;;;7.97;2.63;;;;;;;;;;6292861;22;20082;-94
2023/05/24 08:17:36;;;;;;;5.97;3.10;;;;;;;;;;6293216;22;20007;-94
2023/05/24 08:20:08;;;;;;;8.63;2.47;;;;;;;;;;6295375;22;20468;-95
2023/05/24 08:22:36;;;;;;;10.13;2.50;;;;;;;;;;6293287;22;20432;-95
2023/05/24 08:25:02;;;;;;;9.75;3.78;;;;;;;;;;6316222;22;19999;-94
2023/05/24 08:27:29;;;;;;;12.05;2.80;;;;;;;;;;6315488;22;20127;-94
2023/05/24 08:29:55;;;;;;;7.25;2.55;;;;;;;;;;6290993;22;20098;-93
2023/05/24 08:32:24;;;;;;;9.77;2.33;;;;;;;;;;6292045;22;20006;-93
2023/05/24 08:34:56;;;;;;;16.85;3.45;;;;;;;;;;6290584;22;20051;-93
2023/05/24 08:37:24;;;;;;;11.23;2.33;;;;;;;;;;6291518;22;20014;-94
2023/05/24 08:39:50;;;;;;;11.07;3.47;;;;;;;;;;6318067;22;20070;-93
2023/05/24 08:45:06;;;;;;;13.63;3.05;;;;;;;;;;6280366;22;20010;-94
2023/05/24 08:47:32;;;;;;;8.18;2.85;;;;;;;;;;6316177;22;20132;-93
2023/05/24 08:49:59;;;;;;;12.13;3.08;;;;;;;;;;6315717;22;20234;-92
2023/05/24 08:52:29;;;;;;;13.95;2.83;;;;;;;;;;6314599;22;20006;-93
2023/05/24 08:54:55;;;;;;;7.95;2.95;;;;;;;;;;6314265;22;20013;-91
2023/05/24 08:57:22;;;;;;;23.35;4.00;;;;;;;;;;6315206;22;20037;-93
2023/05/24 08:59:49;;;;;;;7.82;2.38;;;;;;;;;;6289807;22;20027;-93
2023/05/24 09:02:17;;;;;;;9.98;3.13;;;;;;;;;;6314011;22;20328;-93
2023/05/24 09:04:58;;;;;;;13.93;3.35;;;;;;;;;;6345440;22;20097;-94
2023/05/24 09:07:28;;;;;;;16.95;3.47;;;;;;;;;;6346434;22;20014;-94
2023/05/24 09:09:59;;;;;;;18.38;4.10;;;;;;;;;;6346097;22;20381;-93
2023/05/24 09:12:27;;;;;;;11.60;3.33;;;;;;;;;;6347070;22;20344;-94
2023/05/24 09:14:53;;;;;;;9.30;2.90;;;;;;;;;;6321446;22;20006;-94
2023/05/24 09:17:25;;;;;;;11.85;3.30;;;;;;;;;;6345920;22;20348;-94
2023/05/24 09:19:52;;;;;;;9.90;2.60;;;;;;;;;;6345921;22;20031;-94
2023/05/24 09:22:24;;;;;;;14.43;3.50;;;;;;;;;;6346310;22;20085;-92
2023/05/24 09:24:51;;;;;;;14.13;3.95;;;;;;;;;;6321064;22;20068;-94
2023/05/24 09:27:21;;;;;;;17.23;4.00;;;;;;;;;;6345678;22;20116;-94
2023/05/24 09:29:48;;;;;;;16.02;3.13;;;;;;;;;;6320185;22;20019;-92
2023/05/24 09:32:18;;;;;;;11.73;3.00;;;;;;;;;;6346367;22;20002;-94
2023/05/24 09:34:48;;;;;;;13.43;3.42;;;;;;;;;;6345151;22;20006;-95
2023/05/24 09:37:17;;;;;;;14.82;3.25;;;;;;;;;;6321044;22;20033;-94
2023/05/24 09:39:47;;;;;;;7.95;2.67;;;;;;;;;;6345671;22;20017;-94
2023/05/24 09:42:19;;;;;;;9.57;2.97;;;;;;;;;;6345000;22;20037;-94
2023/05/24 09:44:47;;;;;;;14.63;2.83;;;;;;;;;;6344594;22;20055;-95
2023/05/24 09:47:14;;;;;;;12.35;3.40;;;;;;;;;;6346145;22;20006;-93
2023/05/24 09:49:41;;;;;;;12.63;3.03;;;;;;;;;;6346836;22;20002;-93
2023/05/24 09:52:07;;;;;;;13.88;3.70;;;;;;;;;;6345625;22;20014;-93
2023/05/24 09:54:40;;;;;;;12.20;3.05;;;;;;;;;;6347253;22;20009;-95
2023/05/24 09:57:10;;;;;;;10.77;2.95;;;;;;;;;;6346308;22;20013;-95
2023/05/24 09:59:39;;;;;;;15.27;3.28;;;;;;;;;;6345813;22;20003;-94
2023/05/24 10:02:12;;;;;;;10.82;2.80;;;;;;;;;;6345025;22;20438;-94
2023/05/24 10:04:44;;;;;;;9.15;2.40;;;;;;;;;;6351401;22;20017;-95
2023/05/24 10:09:58;;;;;;;6.80;2.45;;;;;;;;;;6372785;22;20500;-94
2023/05/24 10:12:28;;;;;;;10.20;3.25;;;;;;;;;;6347594;22;20331;-93
2023/05/24 10:15:00;;;;;;;10.73;3.20;;;;;;;;;;6348668;22;20006;-95
2023/05/24 10:17:32;;;;;;;8.70;2.83;;;;;;;;;;6350141;22;20188;-94
2023/05/24 10:20:05;;;;;;;13.32;2.90;;;;;;;;;;6351003;22;20037;-94
2023/05/24 10:22:54;;;;;;;11.82;2.75;;;;;;;;;;6326598;22;20010;-93
2023/05/24 10:25:33;;;;;;;5.72;3.45;;;;;;;;;;6347974;22;19999;-95
2023/05/24 10:28:04;;;;;;;6.57;2.20;;;;;;;;;;6348108;22;20006;-95
2023/05/24 10:30:34;;;;;;;10.10;2.25;;;;;;;;;;6347455;22;20010;-94
2023/05/24 10:33:01;;;;;;;14.63;3.35;;;;;;;;;;6319626;22;20011;-94
2023/05/24 10:35:36;;;;;;;14.63;4.10;;;;;;;;;;6346154;22;20015;-95
2023/05/24 10:38:07;;;;;;;11.32;3.67;;;;;;;;;;6348033;22;20003;-94
2023/05/24 10:40:33;;;;;;;14.00;5.00;;;;;;;;;;6346626;22;20305;-94
2023/05/24 10:43:13;;;;;;;15.80;3.83;;;;;;;;;;6320118;22;20084;-94
2023/05/24 10:45:40;;;;;;;14.68;4.07;;;;;;;;;;6345555;22;20010;-93
2023/05/24 10:48:36;;;;;;;20.88;3.72;;;;;;;;;;6319962;22;20351;-93
2023/05/24 10:51:22;;;;;;;12.57;3.72;;;;;;;;;;6344265;22;20013;-94
2023/05/24 10:53:50;;;;;;;15.30;3.45;;;;;;;;;;6345793;22;20065;-94
2023/05/24 10:56:16;;;;;;;16.77;3.20;;;;;;;;;;6345787;22;20006;-95
2023/05/24 10:58:56;;;;;;;17.35;3.13;;;;;;;;;;6320556;22;20440;-92
2023/05/24 11:01:40;;;;;;;;;;;;;;;;;;;;;
2023/05/24 11:04:07;;;;;;;18.80;3.08;;;;;;;;;;6350906;22;20303;-92
2023/05/24 11:06:54;;;;;;;13.68;3.58;;;;;;;;;;6347137;22;20080;-93
2023/05/24 11:09:30;;;;;;;10.13;2.83;;;;;;;;;;6346206;22;20007;-93
2023/05/24 11:12:12;;;;;;;14.20;3.17;;;;;;;;;;6345889;22;20009;-94
2023/05/24 11:14:39;;;;;;;13.80;3.35;;;;;;;;;;6345627;22;20003;-93
2023/05/24 11:17:06;;;;;;;14.95;3.42;;;;;;;;;;6346949;22;20010;-93
2023/05/24 11:19:34;;;;;;;12.23;3.03;;;;;;;;;;6347661;22;20013;-93
2023/05/24 11:22:02;;;;;;;9.90;3.03;;;;;;;;;;6348918;22;20006;-94
2023/05/24 11:24:29;;;;;;;12.00;3.33;;;;;;;;;;6323884;22;20009;-94
2023/05/24 11:26:55;;;;;;;16.73;3.80;;;;;;;;;;6353775;22;20034;-94
2023/05/24 11:29:22;;;;;;;13.18;3.25;;;;;;;;;;6355970;22;20002;-93
2023/05/24 11:31:56;;;;;;;9.43;3.03;;;;;;;;;;6364490;22;20081;-94
2023/05/24 11:34:32;;;;;;;12.93;2.60;;;;;;;;;;6365884;22;20064;-95
2023/05/24 11:37:04;;;;;;;11.10;2.90;;;;;;;;;;6365144;22;19990;-96
2023/05/24 11:39:31;;;;;;;13.52;3.30;;;;;;;;;;6367008;22;20002;-94
2023/05/24 11:41:58;;;;;;;10.82;3.17;;;;;;;;;;6341361;22;20033;-94
2023/05/24 11:44:31;;;;;;;12.73;2.90;;;;;;;;;;6365763;22;20031;-96
2023/05/24 11:47:02;;;;;;;13.35;3.13;;;;;;;;;;6341022;22;20047;-93
2023/05/24 11:49:28;;;;;;;11.02;3.08;;;;;;;;;;6367542;22;20010;-94
2023/05/24 11:51:58;;;;;;;11.35;3.22;;;;;;;;;;6333317;22;20006;-94
2023/05/24 11:54:26;;;;;;;13.35;2.78;;;;;;;;;;6361700;22;20025;-94
2023/05/24 11:56:53;;;;;;;16.13;3.30;;;;;;;;;;6358045;22;20098;-94
2023/05/24 11:59:26;;;;;;;14.90;3.38;;;;;;;;;;6329167;22;20013;-94
2023/05/24 12:01:59;;;;;;;13.85;3.17;;;;;;;;;;6353625;22;19998;-93
2023/05/24 12:04:28;;;;;;;15.48;3.47;;;;;;;;;;6357857;22;20066;-94
2023/05/24 12:06:55;;;;;;;10.93;3.90;;;;;;;;;;6356456;22;20081;-93
2023/05/24 12:09:27;;;;;;;9.57;2.60;;;;;;;;;;6329163;22;20024;-94
2023/05/24 12:11:57;;;;;;;16.50;4.25;;;;;;;;;;6355057;22;20002;-94
2023/05/24 12:14:33;;;;;;;12.18;2.45;;;;;;;;;;6353157;22;20347;-95
2023/05/24 12:17:00;;;;;;;14.93;2.92;;;;;;;;;;6353019;22;20002;-95
2023/05/24 12:19:33;;;;;;;19.35;3.10;;;;;;;;;;6354534;22;20006;-95
2023/05/24 12:22:00;;;;;;;12.45;3.78;;;;;;;;;;6349821;22;20074;-94
2023/05/24 12:24:27;;;;;;;12.57;2.95;;;;;;;;;;6359193;22;20009;-95
2023/05/24 12:26:57;;;;;;;11.32;2.28;;;;;;;;;;6348814;22;20027;-95
2023/05/24 12:29:24;;;;;;;14.18;2.85;;;;;;;;;;6348720;22;20009;-94
2023/05/24 12:31:50;;;;;;;13.80;3.20;;;;;;;;;;6323587;22;20006;-94
2023/05/24 12:34:20;;;;;;;13.20;2.75;;;;;;;;;;6320979;22;20006;-94
2023/05/24 12:36:47;;;;;;;10.85;3.15;;;;;;;;;;6347279;22;20459;-95
2023/05/24 12:39:35;;;;;;;15.32;3.50;;;;;;;;;;6321662;22;20027;-94
2023/05/24 12:42:02;;;;;;;16.10;3.80;;;;;;;;;;6348539;22;20428;-94
2023/05/24 12:44:36;;;;;;;13.45;2.80;;;;;;;;;;6347714;22;20093;-94
2023/05/24 12:47:03;;;;;;;16.52;3.85;;;;;;;;;;6349308;22;20006;-95
2023/05/24 12:49:39;;;;;;;14.10;2.70;;;;;;;;;;6349368;22;20351;-94
2023/05/24 12:52:06;;;;;;;13.02;3.35;;;;;;;;;;6322287;22;20012;-95
2023/05/24 12:54:38;;;;;;;10.88;2.97;;;;;;;;;;6347713;22;20479;-93
2023/05/24 12:57:05;;;;;;;12.48;3.45;;;;;;;;;;6347566;22;20018;-94
2023/05/24 12:59:31;;;;;;;10.48;2.83;;;;;;;;;;6321127;22;20007;-94
2023/05/24 13:01:59;;;;;;;10.02;2.90;;;;;;;;;;6347732;22;20004;-95
2023/05/24 13:04:32;;;;;;;8.32;2.30;;;;;;;;;;6325700;22;20078;-94
2023/05/24 13:07:08;;;;;;;13.95;3.20;;;;;;;;;;6323315;22;20507;-95
2023/05/24 13:09:34;;;;;;;11.52;3.00;;;;;;;;;;6322537;22;20085;-95
2023/05/24 13:12:01;;;;;;;9.77;2.53;;;;;;;;;;6348794;22;19998;-94
2023/05/24 13:14:27;;;;;;;7.60;2.30;;;;;;;;;;6348421;22;20002;-94
2023/05/24 13:16:54;;;;;;;8.73;2.33;;;;;;;;;;6323007;22;20093;-96
2023/05/24 13:19:23;;;;;;;9.23;2.75;;;;;;;;;;6350330;22;20002;-94
2023/05/24 13:21:49;;;;;;;10.20;3.08;;;;;;;;;;6323803;22;20435;-95
2023/05/24 13:24:16;;;;;;;11.35;3.08;;;;;;;;;;6322149;22;20006;-94
2023/05/24 13:26:42;;;;;;;12.25;2.47;;;;;;;;;;6347038;22;20077;-93
2023/05/24 13:29:14;;;;;;;14.15;2.47;;;;;;;;;;6346894;22;20006;-93
2023/05/24 13:31:41;;;;;;;13.00;3.38;;;;;;;;;;6348579;22;20033;-94
2023/05/24 13:34:17;;;;;;;11.40;3.42;;;;;;;;;;6323904;22;20011;-94
2023/05/24 13:36:47;;;;;;;8.00;3.00;;;;;;;;;;6348280;22;20413;-94
2023/05/24 13:39:13;;;;;;;10.35;3.30;;;;;;;;;;6348512;22;20504;-94
2023/05/24 13:41:46;;;;;;;12.90;3.50;;;;;;;;;;6322843;22;20029;-94
2023/05/24 13:44:25;;;;;;;12.48;2.55;;;;;;;;;;6349149;22;20055;-94
2023/05/24 13:46:55;;;;;;;10.00;2.97;;;;;;;;;;6347402;22;20006;-95
2023/05/24 13:52:08;;;;;;;7.68;2.30;;;;;;;;;;6353022;22;20082;-94
2023/05/24 13:54:47;;;;;;;8.85;3.30;;;;;;;;;;6321848;22;20010;-94
2023/05/24 13:57:14;;;;;;;7.10;2.83;;;;;;;;;;6319720;22;20007;-93
2023/05/24 13:59:40;;;;;;;12.95;3.00;;;;;;;;;;6319453;22;20003;-95
2023/05/24 14:02:07;;;;;;;7.85;2.55;;;;;;;;;;6347089;22;20010;-92
2023/05/24 14:04:33;;;;;;;8.32;2.35;;;;;;;;;;6322251;22;20014;-94
2023/05/24 14:07:12;;;;;;;9.45;3.45;;;;;;;;;;6281801;22;20004;-94
2023/05/24 14:09:38;;;;;;;6.18;2.25;;;;;;;;;;6257518;22;20008;-94
2023/05/24 14:12:06;;;;;;;6.78;2.28;;;;;;;;;;6281824;22;19999;-94
2023/05/24 14:14:33;;;;;;;9.50;2.05;;;;;;;;;;6282667;22;20007;-94
2023/05/24 14:17:03;;;;;;;11.05;3.00;;;;;;;;;;6255877;22;20007;-93
2023/05/24 14:19:33;;;;;;;13.38;2.60;;;;;;;;;;6281384;22;20007;-94
2023/05/24 14:22:00;;;;;;;12.30;2.70;;;;;;;;;;6255613;22;20011;-94
2023/05/24 14:24:41;;;;;;;10.50;2.97;;;;;;;;;;6280407;22;20011;-93
2023/05/24 14:27:08;;;;;;;6.57;2.33;;;;;;;;;;6254845;22;20011;-95
2023/05/24 14:29:36;;;;;;;8.85;2.50;;;;;;;;;;6281491;22;20397;-94
2023/05/24 14:32:03;;;;;;;7.50;2.78;;;;;;;;;;6256539;22;20070;-94
2023/05/24 14:34:32;;;;;;;7.10;2.53;;;;;;;;;;6256104;22;20015;-95
2023/05/24 14:36:58;;;;;;;11.85;2.72;;;;;;;;;;6280483;22;20334;-94
2023/05/24 14:39:27;;;;;;;9.55;2.42;;;;;;;;;;6257165;22;20148;-96
2023/05/24 14:41:53;;;;;;;8.85;2.20;;;;;;;;;;6281609;22;20010;-94
2023/05/24 14:44:19;;;;;;;7.82;2.35;;;;;;;;;;6286406;22;20002;-95
2023/05/24 14:46:46;;;;;;;13.82;3.42;;;;;;;;;;6320177;22;20082;-94
2023/05/24 14:49:42;;;;;;;11.00;2.50;;;;;;;;;;6346464;22;20013;-95
2023/05/24 14:52:00;;;;;;;10.70;2.83;;;;;;;;;;6347142;22;20064;-94
2023/05/24 14:54:29;;;;;;;6.70;2.42;;;;;;;;;;6320899;22;20014;-94
2023/05/24 14:56:55;;;;;;;10.98;3.00;;;;;;;;;;6319487;22;20014;-95
2023/05/24 14:59:22;;;;;;;7.80;2.75;;;;;;;;;;6320600;22;20006;-95